Terminal Aerodrome Forecast
Issued by NWS

Home | Current Version | Previous Version | Graphics & Text | Print | Product List | Glossary On
Versions: 1 2 3 4 5 6 7 8 9 10 11 12 13
000
FTUS43 KUNR 261700
TAFGCC
TAF
KGCC 261720Z 2618/2718 33008KT P6SM BKN014
     FM270800 22010KT P6SM SCT020 SCT150=

USA.gov is the U.S. government's official web portal to all federal, state and local government web resources and services.